createdAt,value
2018-05-04T00:00:53.037Z,148.97
2018-05-04T00:03:22.110Z,139.90
2018-05-04T00:05:51.681Z,167.77
2018-05-04T00:08:20.795Z,183.97
2018-05-04T00:10:49.654Z,183.90
2018-05-04T00:13:18.461Z,186.60
2018-05-04T00:15:47.242Z,161.93
2018-05-04T00:18:16.283Z,155.43
2018-05-04T00:20:46.118Z,137.83
2018-05-04T00:23:14.991Z,140.07
2018-05-04T00:25:43.831Z,139.47
2018-05-04T00:28:12.854Z,138.27
2018-05-04T00:30:41.853Z,134.33
2018-05-04T00:33:11.473Z,142.57
2018-05-04T00:35:40.320Z,129.20
2018-05-04T00:38:09.152Z,129.60
2018-05-04T00:40:38.807Z,139.80
2018-05-04T00:43:07.829Z,147.07
2018-05-04T00:45:36.745Z,131.33
2018-05-04T00:48:06.329Z,144.80
2018-05-04T00:50:35.244Z,146.00
2018-05-04T00:53:04.902Z,155.13
2018-05-04T00:55:34.108Z,144.50
2018-05-04T00:58:03.075Z,149.83
2018-05-04T01:00:31.793Z,158.17
2018-05-04T01:03:00.760Z,158.33
2018-05-04T01:05:29.521Z,155.13
2018-05-04T01:07:59.222Z,156.77
2018-05-04T01:10:29.139Z,163.63
2018-05-04T01:12:58.043Z,151.63
2018-05-04T01:15:27.642Z,147.23
2018-05-04T01:17:56.447Z,148.47
2018-05-04T01:20:25.222Z,150.97
2018-05-04T01:22:54.118Z,151.83
2018-05-04T01:25:22.960Z,155.90
2018-05-04T01:27:52.635Z,146.20
2018-05-04T01:30:21.469Z,156.37
2018-05-04T01:32:51.035Z,155.63
2018-05-04T01:35:19.806Z,164.87
2018-05-04T01:37:48.636Z,162.20
2018-05-04T01:40:17.400Z,164.17
2018-05-04T01:42:46.320Z,156.53
2018-05-04T01:45:15.312Z,147.63
2018-05-04T01:47:44.076Z,161.33
2018-05-04T01:50:12.904Z,149.00
2018-05-04T01:52:41.686Z,156.70
2018-05-04T01:55:10.694Z,151.47
2018-05-04T01:57:39.468Z,149.63
2018-05-04T02:00:08.526Z,156.53
2018-05-04T02:02:37.292Z,145.47
2018-05-04T02:05:06.172Z,142.63
2018-05-04T02:07:35.762Z,152.63
2018-05-04T02:10:04.868Z,143.20
2018-05-04T02:12:34.032Z,180.63
2018-05-04T02:15:02.831Z,170.60
2018-05-04T02:17:31.696Z,171.27
2018-05-04T02:20:00.538Z,165.63
2018-05-04T02:22:29.337Z,167.13
2018-05-04T02:24:58.242Z,158.17
2018-05-04T02:27:27.047Z,167.67
2018-05-04T02:29:56.880Z,168.87
2018-05-04T02:32:25.801Z,177.17
2018-05-04T02:34:54.722Z,176.00
2018-05-04T02:37:23.741Z,179.10
2018-05-04T02:39:52.674Z,179.03
2018-05-04T02:42:21.769Z,165.77
2018-05-04T02:44:50.474Z,163.83
2018-05-04T02:47:19.336Z,172.27
2018-05-04T02:49:48.882Z,173.40
2018-05-04T02:52:17.773Z,157.03
2018-05-04T02:54:46.513Z,167.47
2018-05-04T02:57:15.805Z,166.00
2018-05-04T02:59:44.561Z,167.60
2018-05-04T03:02:13.335Z,168.37
2018-05-04T03:04:42.281Z,160.57
2018-05-04T03:07:11.010Z,161.33
2018-05-04T03:09:40.638Z,162.03
2018-05-04T03:12:10.546Z,171.13
2018-05-04T03:14:40.228Z,168.30
2018-05-04T03:17:08.988Z,175.80
2018-05-04T03:19:37.877Z,158.77
2018-05-04T03:22:07.473Z,163.33
2018-05-04T03:24:36.336Z,157.40
2018-05-04T03:27:05.262Z,161.80
2018-05-04T03:29:34.073Z,171.30
2018-05-04T03:32:02.834Z,176.33
2018-05-04T03:34:32.090Z,185.17
2018-05-04T03:37:00.889Z,195.70
2018-05-04T03:39:29.782Z,185.57
2018-05-04T03:41:58.828Z,204.00
2018-05-04T03:44:28.709Z,211.10
2018-05-04T03:46:57.540Z,191.83
2018-05-04T03:49:26.460Z,175.83
2018-05-04T03:51:55.215Z,175.43
2018-05-04T03:54:24.758Z,172.60
2018-05-04T03:57:06.311Z,165.63
2018-05-04T03:59:47.118Z,160.33
2018-05-04T04:02:27.926Z,178.00
2018-05-04T04:04:57.640Z,165.07
2018-05-04T04:07:27.323Z,169.67
2018-05-04T04:09:56.116Z,167.63
2018-05-04T04:12:24.904Z,168.37
2018-05-04T04:14:53.777Z,157.87
2018-05-04T04:17:22.628Z,182.20
2018-05-04T04:19:52.174Z,185.23
2018-05-04T04:22:21.045Z,180.13
2018-05-04T04:24:49.892Z,161.20
2018-05-04T04:27:19.474Z,170.90
2018-05-04T04:29:48.371Z,164.80
2018-05-04T04:32:17.207Z,163.13
2018-05-04T04:34:46.743Z,172.30
2018-05-04T04:37:15.717Z,164.43
2018-05-04T04:39:45.335Z,147.33
2018-05-04T04:42:14.157Z,156.23
2018-05-04T04:44:43.283Z,163.67
2018-05-04T04:47:12.932Z,144.47
2018-05-04T04:49:42.072Z,147.80
2018-05-04T04:52:10.877Z,144.43
2018-05-04T04:54:40.568Z,149.80
2018-05-04T04:57:09.357Z,151.37
2018-05-04T04:59:38.098Z,143.17
2018-05-04T05:02:06.948Z,143.90
2018-05-04T05:04:36.519Z,153.30
2018-05-04T05:07:05.306Z,156.93
2018-05-04T05:09:34.088Z,157.33
2018-05-04T05:12:02.943Z,177.97
2018-05-04T05:14:31.886Z,168.47
2018-05-04T05:17:01.484Z,159.10
2018-05-04T05:19:31.118Z,173.17
2018-05-04T05:22:00.997Z,172.10
2018-05-04T05:24:30.029Z,168.83
2018-05-04T05:26:59.057Z,164.17
2018-05-04T05:29:28.645Z,164.70
2018-05-04T05:31:58.347Z,180.73
2018-05-04T05:34:27.302Z,199.13
2018-05-04T05:36:56.154Z,214.83
2018-05-04T05:39:24.984Z,255.07
2018-05-04T05:41:53.823Z,239.77
2018-05-04T05:44:23.403Z,232.03
2018-05-04T05:46:52.248Z,232.70
2018-05-04T05:49:21.096Z,220.03
2018-05-04T05:51:50.109Z,211.47
2018-05-04T05:54:19.025Z,196.10
2018-05-04T05:56:48.408Z,179.33
2018-05-04T05:59:18.027Z,172.17
2018-05-04T06:01:46.866Z,168.43
2018-05-04T06:04:16.495Z,162.47
2018-05-04T06:06:46.043Z,178.40
2018-05-04T06:09:14.949Z,156.00
2018-05-04T06:11:43.718Z,153.90
2018-05-04T06:14:12.632Z,150.07
2018-05-04T06:16:41.463Z,147.70
2018-05-04T06:19:11.045Z,144.43
2018-05-04T06:21:40.667Z,153.90
2018-05-04T06:24:09.529Z,149.00
2018-05-04T06:26:38.521Z,147.93
2018-05-04T06:29:07.302Z,153.73
2018-05-04T06:31:36.142Z,154.43
2018-05-04T06:34:05.173Z,131.83
2018-05-04T06:36:34.209Z,177.67
2018-05-04T06:39:04.191Z,137.23
2018-05-04T06:41:33.417Z,127.03
2018-05-04T06:44:03.536Z,127.67
2018-05-04T06:46:32.310Z,125.90
2018-05-04T06:49:01.118Z,120.10
2018-05-04T06:51:30.105Z,125.37
2018-05-04T06:53:59.719Z,132.50
2018-05-04T06:56:28.436Z,114.93
2018-05-04T06:58:57.572Z,119.13
2018-05-04T07:01:27.335Z,116.87
2018-05-04T07:03:56.987Z,114.87
2018-05-04T07:06:26.014Z,123.60
2018-05-04T07:08:54.834Z,128.60
2018-05-04T07:11:23.656Z,117.50
2018-05-04T07:13:52.466Z,132.83
2018-05-04T07:16:22.089Z,122.40
2018-05-04T07:18:51.065Z,130.77
2018-05-04T07:21:19.868Z,121.27
2018-05-04T07:23:48.688Z,124.93
2018-05-04T07:26:17.734Z,130.27
2018-05-04T07:28:46.524Z,124.33
2018-05-04T07:31:16.097Z,162.73
2018-05-04T07:33:44.855Z,117.53
2018-05-04T07:36:14.650Z,119.93
2018-05-04T07:38:44.464Z,121.87
2018-05-04T07:41:14.343Z,120.97
2018-05-04T07:43:43.267Z,113.07
2018-05-04T07:46:12.159Z,111.77
2018-05-04T07:48:41.328Z,119.00
2018-05-04T07:51:10.552Z,119.63
2018-05-04T07:53:39.649Z,122.97
2018-05-04T07:56:08.535Z,147.37
2018-05-04T07:58:37.386Z,185.70
2018-05-04T08:01:06.522Z,159.17
2018-05-04T08:03:35.516Z,160.07
2018-05-04T08:06:04.346Z,161.83
2018-05-04T08:08:33.833Z,150.83
2018-05-04T08:11:02.800Z,153.30
2018-05-04T08:13:33.237Z,161.27
2018-05-04T08:16:02.298Z,153.23
2018-05-04T08:18:31.506Z,146.27
2018-05-04T08:21:00.291Z,149.27
2018-05-04T08:23:29.071Z,146.03
2018-05-04T08:25:57.989Z,158.33
2018-05-04T08:28:27.731Z,159.13
2018-05-04T08:30:56.589Z,153.63
2018-05-04T08:33:25.708Z,155.97
2018-05-04T08:35:54.528Z,145.10
2018-05-04T08:38:23.633Z,150.07
2018-05-04T08:40:52.465Z,140.13
2018-05-04T08:43:21.212Z,153.00
2018-05-04T08:45:50.862Z,148.70
2018-05-04T08:48:19.705Z,146.33
2018-05-04T08:50:48.657Z,143.33
2018-05-04T08:53:17.773Z,149.50
2018-05-04T08:55:46.676Z,151.67
2018-05-04T08:58:20.806Z,133.93
2018-05-04T09:00:50.719Z,141.07
2018-05-04T09:03:28.015Z,142.20
2018-05-04T09:05:59.783Z,134.70
2018-05-04T09:08:31.229Z,135.60
2018-05-04T09:11:00.961Z,151.77
2018-05-04T09:13:30.399Z,139.83
2018-05-04T09:15:59.410Z,148.97
2018-05-04T09:18:28.559Z,135.17
2018-05-04T09:20:59.252Z,140.27
2018-05-04T09:23:28.133Z,158.93
2018-05-04T09:25:56.948Z,130.13
2018-05-04T09:28:25.754Z,127.17
2018-05-04T09:30:54.536Z,129.97
2018-05-04T09:33:23.390Z,120.97
2018-05-04T09:35:52.185Z,124.27
2018-05-04T09:38:21.036Z,116.57
2018-05-04T09:40:50.753Z,113.23
2018-05-04T09:43:20.384Z,131.93
2018-05-04T09:45:49.264Z,109.23
2018-05-04T09:48:18.826Z,113.80
2018-05-04T09:50:47.804Z,123.97
2018-05-04T09:53:16.747Z,103.90
2018-05-04T09:55:46.635Z,112.50
2018-05-04T09:58:15.574Z,97.13
2018-05-04T10:00:44.265Z,98.13
2018-05-04T10:03:13.194Z,97.03
2018-05-04T10:05:42.022Z,86.27
2018-05-04T10:08:11.505Z,96.40
2018-05-04T10:10:41.114Z,88.20
2018-05-04T10:13:09.914Z,99.17
2018-05-04T10:15:39.447Z,90.97
2018-05-04T10:18:08.386Z,83.83
2018-05-04T10:20:37.479Z,82.93
2018-05-04T10:23:06.236Z,81.67
2018-05-04T10:25:35.059Z,80.83
2018-05-04T10:28:03.887Z,76.67
2018-05-04T10:30:33.403Z,77.80
2018-05-04T10:33:02.224Z,84.53
2018-05-04T10:35:31.118Z,75.00
2018-05-04T10:37:59.916Z,84.83
2018-05-04T10:40:29.175Z,79.97
2018-05-04T10:42:57.938Z,77.13
2018-05-04T10:45:27.561Z,79.80
2018-05-04T10:47:56.453Z,76.43
2018-05-04T10:50:26.046Z,74.30
2018-05-04T10:52:55.621Z,76.27
2018-05-04T10:55:26.094Z,77.43
2018-05-04T10:57:54.998Z,71.37
2018-05-04T11:00:23.929Z,68.77
2018-05-04T11:02:52.738Z,88.37
2018-05-04T11:05:21.629Z,68.30
2018-05-04T11:07:50.676Z,78.07
2018-05-04T11:10:19.649Z,74.43
2018-05-04T11:12:49.255Z,65.67
2018-05-04T11:15:18.249Z,78.53
2018-05-04T11:17:47.035Z,74.33
2018-05-04T11:20:15.856Z,76.37
2018-05-04T11:22:44.568Z,67.03
2018-05-04T11:25:13.395Z,83.27
2018-05-04T11:27:42.301Z,75.50
2018-05-04T11:30:11.087Z,73.13
2018-05-04T11:32:39.871Z,81.40
2018-05-04T11:35:09.523Z,76.33
2018-05-04T11:37:38.376Z,81.13
2018-05-04T11:40:07.212Z,69.47
2018-05-04T11:42:36.846Z,65.23
2018-05-04T11:45:06.829Z,79.17
2018-05-04T11:47:35.594Z,67.30
2018-05-04T11:50:04.606Z,70.73
2018-05-04T11:52:33.355Z,64.63
2018-05-04T11:55:02.961Z,66.33
2018-05-04T11:57:32.052Z,86.00
2018-05-04T12:00:00.989Z,77.43
2018-05-04T12:02:29.950Z,81.93
2018-05-04T12:04:59.042Z,83.03
2018-05-04T12:07:27.951Z,76.73
2018-05-04T12:09:57.021Z,76.43
2018-05-04T12:12:25.909Z,80.10
2018-05-04T12:14:54.993Z,76.60
2018-05-04T12:17:24.807Z,72.10
2018-05-04T12:19:54.342Z,68.70
2018-05-04T12:22:23.066Z,65.07
2018-05-04T12:24:52.695Z,51.40
2018-05-04T12:27:22.250Z,52.57
2018-05-04T12:29:51.326Z,44.23
2018-05-04T12:32:21.037Z,46.03
2018-05-04T12:34:50.867Z,37.60
2018-05-04T12:37:19.728Z,38.57
2018-05-04T12:39:49.297Z,41.07
2018-05-04T12:42:18.296Z,41.23
2018-05-04T12:44:47.350Z,43.90
2018-05-04T12:47:16.128Z,58.37
2018-05-04T12:49:44.996Z,41.80
2018-05-04T12:52:14.496Z,38.83
2018-05-04T12:54:43.333Z,46.97
2018-05-04T12:57:12.098Z,38.90
2018-05-04T12:59:41.098Z,45.93
2018-05-04T13:02:10.358Z,40.20
2018-05-04T13:04:39.884Z,46.20
2018-05-04T13:07:10.410Z,42.53
2018-05-04T13:09:39.350Z,36.67
2018-05-04T13:12:08.159Z,47.40
2018-05-04T13:14:37.245Z,46.37
2018-05-04T13:17:06.059Z,56.47
2018-05-04T13:19:35.698Z,53.03
2018-05-04T13:22:04.791Z,55.33
2018-05-04T13:24:34.449Z,55.40
2018-05-04T13:27:03.760Z,59.63
2018-05-04T13:29:32.867Z,56.03
2018-05-04T13:32:02.424Z,44.60
2018-05-04T13:34:31.267Z,48.47
2018-05-04T13:37:01.161Z,50.67
2018-05-04T13:39:30.347Z,46.20
2018-05-04T13:41:59.294Z,58.97
2018-05-04T13:44:28.123Z,49.40
2018-05-04T13:46:57.087Z,48.47
2018-05-04T13:49:25.851Z,45.43
2018-05-04T13:51:54.799Z,50.87
2018-05-04T13:54:23.589Z,54.50
2018-05-04T13:56:52.387Z,46.60
2018-05-04T13:59:21.088Z,48.13
2018-05-04T14:01:50.239Z,51.67
2018-05-04T14:04:19.150Z,53.57
2018-05-04T14:06:48.020Z,57.87
2018-05-04T14:09:18.419Z,54.57
2018-05-04T14:11:47.335Z,59.03
2018-05-04T14:14:16.322Z,62.97
2018-05-04T14:16:46.178Z,61.97
2018-05-04T14:19:16.110Z,45.47
2018-05-04T14:21:44.946Z,55.57
2018-05-04T14:24:13.856Z,49.77
2018-05-04T14:26:43.175Z,45.00
2018-05-04T14:29:12.064Z,49.33
2018-05-04T14:31:40.901Z,49.30
2018-05-04T14:34:09.689Z,48.30
2018-05-04T14:36:38.604Z,48.70
2018-05-04T14:39:07.927Z,44.10
2018-05-04T14:41:37.626Z,40.50
2018-05-04T14:44:07.877Z,48.33
2018-05-04T14:46:36.618Z,44.53
2018-05-04T14:49:05.515Z,45.80
2018-05-04T14:51:34.339Z,45.73
2018-05-04T14:54:03.182Z,53.07
2018-05-04T14:56:32.149Z,53.47
2018-05-04T14:59:00.926Z,56.30
2018-05-04T15:01:30.468Z,41.57
2018-05-04T15:03:59.364Z,53.20
2018-05-04T15:06:28.239Z,56.03
2018-05-04T15:08:57.475Z,58.03
2018-05-04T15:11:27.051Z,55.87
2018-05-04T15:13:55.906Z,50.70
2018-05-04T15:16:24.938Z,46.50
2018-05-04T15:18:54.664Z,54.50
2018-05-04T15:21:23.466Z,47.17
2018-05-04T15:23:53.217Z,60.10
2018-05-04T15:26:23.295Z,51.70
2018-05-04T15:28:52.937Z,60.47
2018-05-04T15:31:22.014Z,65.60
2018-05-04T15:33:50.892Z,57.40
2018-05-04T15:36:19.817Z,47.57
2018-05-04T15:38:48.536Z,53.27
2018-05-04T15:41:17.311Z,57.23
2018-05-04T15:43:46.255Z,48.60
2018-05-04T15:46:16.570Z,50.40
2018-05-04T15:48:51.438Z,54.33
2018-05-04T15:51:25.942Z,48.67
2018-05-04T15:53:54.736Z,52.40
2018-05-04T15:56:23.580Z,54.50
2018-05-04T15:58:53.698Z,48.07
2018-05-04T16:01:23.210Z,52.03
2018-05-04T16:03:53.251Z,56.37
2018-05-04T16:06:22.132Z,64.83
2018-05-04T16:08:50.931Z,58.83
2018-05-04T16:11:20.025Z,58.97
2018-05-04T16:13:49.609Z,71.27
2018-05-04T16:16:18.456Z,60.87
2018-05-04T16:18:47.412Z,59.73
2018-05-04T16:21:16.184Z,56.47
2018-05-04T16:23:45.150Z,61.20
2018-05-04T16:26:13.897Z,68.93
2018-05-04T16:28:43.503Z,51.47
2018-05-04T16:31:12.389Z,48.00
2018-05-04T16:33:41.251Z,49.90
2018-05-04T16:36:10.060Z,51.90
2018-05-04T16:38:38.881Z,61.63
2018-05-04T16:41:08.456Z,65.10
2018-05-04T16:43:37.444Z,69.73
2018-05-04T16:46:06.538Z,59.00
2018-05-04T16:48:41.143Z,59.53
2018-05-04T16:51:10.976Z,56.60
2018-05-04T16:53:39.985Z,65.20
2018-05-04T16:56:09.750Z,57.83
2018-05-04T16:58:38.716Z,65.73
2018-05-04T17:01:08.246Z,59.43
2018-05-04T17:03:38.460Z,62.30
2018-05-04T17:06:07.437Z,61.40
2018-05-04T17:08:36.262Z,60.80
2018-05-04T17:11:06.020Z,64.40
2018-05-04T17:13:35.700Z,53.40
2018-05-04T17:16:04.719Z,57.53
2018-05-04T17:18:34.725Z,65.40
2018-05-04T17:21:04.371Z,56.80
2018-05-04T17:23:34.062Z,57.30
2018-05-04T17:26:03.146Z,57.37
2018-05-04T17:28:33.795Z,58.93
2018-05-04T17:31:03.694Z,70.33
2018-05-04T17:33:33.245Z,60.00
2018-05-04T17:36:02.278Z,52.53
2018-05-04T17:38:32.477Z,56.60
2018-05-04T17:41:01.315Z,53.10
2018-05-04T17:43:30.989Z,47.70
2018-05-04T17:46:00.969Z,46.30
2018-05-04T17:48:29.987Z,49.53
2018-05-04T17:50:58.962Z,53.43
2018-05-04T17:53:28.004Z,47.47
2018-05-04T17:55:58.732Z,45.67
2018-05-04T17:58:27.912Z,48.77
2018-05-04T18:00:56.956Z,50.93
2018-05-04T18:03:26.534Z,51.43
2018-05-04T18:05:58.475Z,61.17
2018-05-04T18:08:27.734Z,49.50
2018-05-04T18:10:57.650Z,49.77
2018-05-04T18:13:27.814Z,52.77
2018-05-04T18:15:57.560Z,49.97
2018-05-04T18:18:27.026Z,52.20
2018-05-04T18:20:56.544Z,52.73
2018-05-04T18:23:26.195Z,51.80
2018-05-04T18:25:55.805Z,52.30
2018-05-04T18:28:25.337Z,56.83
2018-05-04T18:30:55.677Z,52.57
2018-05-04T18:33:26.402Z,63.80
2018-05-04T18:35:56.812Z,58.73
2018-05-04T18:38:26.568Z,57.37
2018-05-04T18:40:56.118Z,49.77
2018-05-04T18:43:26.586Z,51.30
2018-05-04T18:45:56.374Z,56.37
2018-05-04T18:48:26.554Z,55.27
2018-05-04T18:50:56.439Z,59.93
2018-05-04T18:53:26.077Z,57.67
2018-05-04T18:55:55.770Z,56.20
2018-05-04T18:58:25.414Z,60.10
2018-05-04T19:00:56.075Z,55.80
2018-05-04T19:03:25.772Z,64.23
2018-05-04T19:05:56.252Z,62.70
2018-05-04T19:08:26.113Z,56.70
2018-05-04T19:10:56.504Z,62.27
2018-05-04T19:13:26.173Z,58.97
2018-05-04T19:15:55.787Z,57.63
2018-05-04T19:18:25.604Z,63.73
2018-05-04T19:20:55.291Z,67.60
2018-05-04T19:23:25.601Z,78.87
2018-05-04T19:25:55.219Z,78.13
2018-05-04T19:28:24.874Z,70.37
2018-05-04T19:30:54.655Z,70.20
2018-05-04T19:33:25.060Z,85.90
2018-05-04T19:35:54.742Z,71.47
2018-05-04T19:38:24.400Z,75.70
2018-05-04T19:40:54.313Z,71.50
2018-05-04T19:43:24.710Z,78.60
2018-05-04T19:45:54.352Z,71.10
2018-05-04T19:48:23.949Z,85.03
2018-05-04T19:50:53.814Z,73.17
2018-05-04T19:53:23.356Z,80.93
2018-05-04T19:55:52.906Z,70.00
2018-05-04T19:58:23.473Z,70.90
2018-05-04T20:00:54.167Z,75.70
2018-05-04T20:03:26.345Z,80.77
2018-05-04T20:05:56.240Z,74.63
2018-05-04T20:08:25.847Z,81.70
2018-05-04T20:10:56.570Z,76.80
2018-05-04T20:13:26.449Z,83.00
2018-05-04T20:15:56.093Z,88.77
2018-05-04T20:18:25.672Z,86.13
2018-05-04T20:20:55.470Z,79.97
2018-05-04T20:23:28.841Z,82.23
2018-05-04T20:25:59.679Z,76.93
2018-05-04T20:28:29.370Z,91.97
2018-05-04T20:30:59.020Z,80.93
2018-05-04T20:33:28.709Z,79.50
2018-05-04T20:35:59.311Z,85.23
2018-05-04T20:38:29.069Z,87.27
2018-05-04T20:40:59.726Z,83.47
2018-05-04T20:43:30.175Z,97.07
2018-05-04T20:46:00.636Z,92.23
2018-05-04T20:48:31.055Z,99.47
2018-05-04T20:51:00.587Z,94.67
2018-05-04T20:53:31.726Z,93.03
2018-05-04T20:56:02.195Z,93.17
2018-05-04T20:58:31.846Z,92.03
2018-05-04T21:01:01.453Z,95.17
2018-05-04T21:03:31.300Z,99.43
2018-05-04T21:06:01.984Z,101.53
2018-05-04T21:08:31.835Z,97.00
2018-05-04T21:11:01.499Z,99.90
2018-05-04T21:13:31.117Z,103.57
2018-05-04T21:16:00.623Z,105.10
2018-05-04T21:18:30.269Z,104.07
2018-05-04T21:21:00.059Z,107.03
2018-05-04T21:23:29.790Z,105.77
2018-05-04T21:25:59.282Z,110.53
2018-05-04T21:28:28.583Z,111.37
2018-05-04T21:30:58.574Z,111.97
2018-05-04T21:33:27.523Z,106.10
2018-05-04T21:35:56.611Z,96.50
2018-05-04T21:38:25.464Z,110.30
2018-05-04T21:40:55.056Z,115.33
2018-05-04T21:43:23.786Z,112.47
2018-05-04T21:45:52.835Z,125.50
2018-05-04T21:48:22.395Z,116.70
2018-05-04T21:50:51.198Z,114.13
2018-05-04T21:53:20.204Z,115.20
2018-05-04T21:55:49.091Z,109.20
2018-05-04T21:58:17.908Z,120.10
2018-05-04T22:00:47.560Z,115.03
2018-05-04T22:03:16.484Z,116.50
2018-05-04T22:05:45.314Z,122.23
2018-05-04T22:08:15.289Z,122.70
2018-05-04T22:10:44.303Z,119.10
2018-05-04T22:13:14.150Z,115.10
2018-05-04T22:15:42.950Z,123.77
2018-05-04T22:18:13.468Z,116.37
2018-05-04T22:20:42.315Z,117.00
2018-05-04T22:23:11.101Z,123.20
2018-05-04T22:25:39.938Z,140.83
2018-05-04T22:28:08.759Z,136.87
2018-05-04T22:30:38.560Z,136.83
2018-05-04T22:33:07.370Z,134.80
2018-05-04T22:35:36.199Z,150.40
2018-05-04T22:38:04.987Z,150.80
2018-05-04T22:40:34.614Z,133.30
2018-05-04T22:43:03.829Z,144.97
2018-05-04T22:45:32.975Z,152.73
2018-05-04T22:48:02.909Z,142.83
2018-05-04T22:50:31.695Z,147.17
2018-05-04T22:53:00.436Z,144.33
2018-05-04T22:55:29.397Z,145.73
2018-05-04T22:57:58.295Z,144.37
2018-05-04T23:00:27.197Z,144.20
2018-05-04T23:02:56.063Z,147.00
2018-05-04T23:05:24.845Z,142.40
2018-05-04T23:07:54.423Z,145.63
2018-05-04T23:10:23.358Z,150.97
2018-05-04T23:12:52.190Z,148.43
2018-05-04T23:15:21.742Z,148.07
2018-05-04T23:17:51.618Z,155.67
2018-05-04T23:20:20.455Z,149.17
2018-05-04T23:22:49.434Z,160.43
2018-05-04T23:25:18.172Z,158.77
2018-05-04T23:27:46.993Z,165.60
2018-05-04T23:30:15.916Z,160.60
2018-05-04T23:32:45.603Z,157.10
2018-05-04T23:35:15.112Z,156.73
2018-05-04T23:37:48.967Z,149.50
2018-05-04T23:40:17.766Z,161.37
2018-05-04T23:42:46.570Z,137.87
2018-05-04T23:45:16.125Z,141.03
2018-05-04T23:47:44.922Z,146.97
2018-05-04T23:50:13.749Z,137.27
2018-05-04T23:52:42.485Z,139.13
2018-05-04T23:55:11.534Z,143.77
2018-05-04T23:57:41.222Z,143.73
